Time;durP1;ratioP1;P1;durP2;ratioP2;P2;SDS_P1;SDS_P2;PMS_P1;PMS_P2;Temp;Humidity;BMP_temperature;BMP_pressure;BME280_temperature;BME280_humidity;BME280_pressure;Samples;Min_cycle;Max_cycle;Signal;HPM_P1;HPM_P2
2022/09/12 00:01:25;;;;;;;36.55;20.48;;;;;;;12.45;100.00;101749.47;4875815;29;20095;-93
2022/09/12 00:03:55;;;;;;;34.67;19.83;;;;;;;12.26;100.00;101716.88;4877157;29;20036;-92
2022/09/12 00:06:28;;;;;;;33.42;19.80;;;;;;;12.33;100.00;101722.81;4875994;29;20021;-91
2022/09/12 00:08:57;;;;;;;34.08;19.73;;;;;;;12.28;100.00;101715.94;4890271;29;20032;-92
2022/09/12 00:11:23;;;;;;;31.92;18.70;;;;;;;12.23;100.00;101711.72;4875332;29;20112;-91
2022/09/12 00:13:50;;;;;;;37.60;20.73;;;;;;;12.33;100.00;101730.63;4865218;29;20156;-92
2022/09/12 00:16:20;;;;;;;36.35;20.40;;;;;;;12.15;100.00;101703.19;4884227;29;20490;-93
2022/09/12 00:18:46;;;;;;;32.00;18.73;;;;;;;12.16;100.00;101697.97;4872526;29;20033;-92
2022/09/12 00:21:14;;;;;;;33.75;19.27;;;;;;;12.26;100.00;101730.72;4859730;29;20037;-92
2022/09/12 00:23:40;;;;;;;32.58;19.52;;;;;;;12.27;100.00;101729.00;4876341;29;20036;-92
2022/09/12 00:26:06;;;;;;;31.90;19.00;;;;;;;12.09;100.00;101703.28;4859857;29;20049;-91
2022/09/12 00:28:34;;;;;;;36.47;19.73;;;;;;;12.08;100.00;101702.41;4880389;29;20059;-92
2022/09/12 00:31:04;;;;;;;34.28;19.92;;;;;;;12.08;100.00;101693.75;4874735;29;20029;-92
2022/09/12 00:33:30;;;;;;;37.45;20.95;;;;;;;12.05;100.00;101689.50;4876563;29;20043;-93
2022/09/12 00:35:58;;;;;;;36.05;19.60;;;;;;;12.10;100.00;101705.84;4875647;29;20033;-93
2022/09/12 00:38:26;;;;;;;36.92;20.98;;;;;;;12.10;100.00;101699.81;4860332;29;20048;-92
2022/09/12 00:40:52;;;;;;;42.00;22.02;;;;;;;11.98;100.00;101674.03;4878406;29;20029;-91
2022/09/12 00:43:26;;;;;;;41.13;21.33;;;;;;;12.06;100.00;101696.41;4871835;29;20032;-92
2022/09/12 00:45:53;;;;;;;38.22;21.20;;;;;;;12.01;100.00;101692.19;4880760;29;20037;-93
2022/09/12 00:48:26;;;;;;;37.10;20.75;;;;;;;12.04;100.00;101698.16;4875351;29;20107;-92
2022/09/12 00:50:57;;;;;;;36.30;21.05;;;;;;;12.00;100.00;101690.44;4866283;29;20544;-92
2022/09/12 00:53:22;;;;;;;36.50;20.98;;;;;;;11.93;100.00;101692.28;4874992;29;20124;-93
2022/09/12 00:55:50;;;;;;;37.45;20.55;;;;;;;11.84;100.00;101679.44;4875247;29;20041;-92
2022/09/12 00:58:32;;;;;;;37.92;20.77;;;;;;;11.77;100.00;101665.69;4871329;29;20037;-93
2022/09/12 01:00:59;;;;;;;35.72;20.30;;;;;;;11.76;100.00;101655.31;4868193;29;20040;-92
2022/09/12 01:03:28;;;;;;;35.00;19.33;;;;;;;11.90;100.00;101683.66;4870066;29;20032;-93
2022/09/12 01:06:18;;;;;;;32.63;19.25;;;;;;;11.91;100.00;101688.00;4881914;29;20032;-92
2022/09/12 01:08:52;;;;;;;34.88;18.67;;;;;;;11.74;100.00;101659.66;4871410;29;20104;-91
2022/09/12 01:11:19;;;;;;;35.53;19.75;;;;;;;11.88;100.00;101675.91;4871278;29;20029;-94
2022/09/12 01:13:48;;;;;;;37.30;20.83;;;;;;;11.86;100.00;101685.47;4871344;29;20033;-93
2022/09/12 01:16:14;;;;;;;38.15;20.52;;;;;;;11.81;100.00;101679.47;4871665;29;20029;-93
2022/09/12 01:18:58;;;;;;;38.88;21.75;;;;;;;11.79;100.00;101684.72;4869318;29;20045;-93
2022/09/12 01:21:36;;;;;;;36.03;19.65;;;;;;;11.62;100.00;101654.63;4880870;29;20036;-93
2022/09/12 01:24:29;;;;;;;34.05;19.85;;;;;;;11.79;100.00;101683.84;4882278;29;20021;-93
2022/09/12 01:27:11;;;;;;;34.45;18.88;;;;;;;11.76;100.00;101684.75;4858953;29;20503;-93
2022/09/12 01:30:03;;;;;;;33.80;19.45;;;;;;;11.74;100.00;101680.44;4868289;29;20037;-93
2022/09/12 01:32:51;;;;;;;38.75;20.13;;;;;;;11.72;100.00;101679.59;4866127;29;20079;-93
2022/09/12 01:35:34;;;;;;;37.67;19.45;;;;;;;11.63;100.00;101669.34;4856438;29;20044;-92
2022/09/12 01:38:37;;;;;;;36.65;20.23;;;;;;;11.58;100.00;101653.81;4858349;29;20104;-93
2022/09/12 01:41:36;;;;;;;34.20;19.02;;;;;;;11.64;100.00;101671.91;4867840;29;20048;-93
2022/09/12 01:44:29;;;;;;;36.38;19.58;;;;;;;11.53;100.00;101650.44;4851435;29;20049;-92
2022/09/12 01:47:24;;;;;;;36.20;19.70;;;;;;;11.60;100.00;101653.81;4874383;29;20076;-92
2022/09/12 01:50:05;;;;;;;38.05;20.25;;;;;;;11.47;100.00;101650.50;4875958;29;20053;-92
2022/09/12 01:52:31;;;;;;;34.97;19.15;;;;;;;11.56;100.00;101663.38;4862852;29;20032;-93
2022/09/12 01:55:05;;;;;;;37.80;20.02;;;;;;;11.37;100.00;101631.63;4881882;29;20035;-92
2022/09/12 01:57:35;;;;;;;;;;;;;;;11.56;100.00;101659.91;4874780;29;20025;-93
2022/09/12 02:00:09;;;;;;;35.50;18.70;;;;;;;11.52;100.00;101648.72;4873505;29;19916;-92
2022/09/12 02:02:47;;;;;;;34.72;19.38;;;;;;;11.39;100.00;101623.84;4873194;29;20032;-93
2022/09/12 02:05:35;;;;;;;34.72;19.55;;;;;;;11.55;100.00;101637.41;4860669;29;20428;-92
2022/09/12 02:08:15;;;;;;;32.28;18.60;;;;;;;11.42;100.00;101624.63;4874660;29;20036;-92
2022/09/12 02:10:48;;;;;;;37.65;19.33;;;;;;;11.41;100.00;101632.44;4881826;29;20451;-92
2022/09/12 02:13:20;;;;;;;34.38;19.27;;;;;;;11.33;100.00;101613.50;4879296;29;20068;-91
2022/09/12 02:15:53;;;;;;;32.55;19.13;;;;;;;11.53;100.00;101629.69;4884043;29;20106;-92
2022/09/12 02:18:20;;;;;;;35.13;19.48;;;;;;;11.45;100.00;101619.41;4879622;29;20032;-91
2022/09/12 02:20:47;;;;;;;35.33;19.63;;;;;;;11.48;100.00;101616.75;4879161;29;20112;-92
2022/09/12 02:23:19;;;;;;;33.20;18.35;;;;;;;11.50;100.00;101621.91;4882339;29;20031;-92
2022/09/12 02:25:49;;;;;;;33.45;18.85;;;;;;;11.40;100.00;101608.22;4885588;29;20049;-92
2022/09/12 02:28:28;;;;;;;36.58;19.92;;;;;;;11.45;100.00;101615.94;4877807;29;20483;-92
2022/09/12 02:31:13;;;;;;;36.78;19.83;;;;;;;11.33;100.00;101596.19;4883841;29;20076;-92
2022/09/12 02:34:09;;;;;;;38.03;20.35;;;;;;;11.34;100.00;101605.69;4877911;29;20037;-92
2022/09/12 02:36:56;;;;;;;35.72;19.65;;;;;;;11.41;100.00;101630.69;4878106;29;20037;-92
2022/09/12 02:39:24;;;;;;;33.67;18.40;;;;;;;11.32;100.00;101610.09;4876761;29;20651;-92
2022/09/12 02:41:56;;;;;;;34.35;19.45;;;;;;;11.26;100.00;101610.16;4877016;29;20037;-92
2022/09/12 02:44:27;;;;;;;33.42;18.90;;;;;;;11.31;100.00;101623.94;4878724;29;20028;-92
2022/09/12 02:46:57;;;;;;;35.30;20.10;;;;;;;11.25;100.00;101620.56;4889076;29;20029;-92
2022/09/12 02:49:23;;;;;;;37.22;20.27;;;;;;;11.32;100.00;101635.19;4879887;29;20510;-92
2022/09/12 02:51:51;;;;;;;36.72;19.33;;;;;;;11.27;100.00;101619.66;4879347;29;20037;-91
2022/09/12 02:54:18;;;;;;;37.15;20.58;;;;;;;11.21;100.00;101622.34;4877510;29;20394;-92
2022/09/12 02:56:45;;;;;;;40.75;21.50;;;;;;;11.32;100.00;101635.19;4848599;29;20080;-92
2022/09/12 02:59:16;;;;;;;39.15;21.33;;;;;;;11.21;100.00;101605.91;4877496;29;20563;-93
2022/09/12 03:01:48;;;;;;;38.67;20.85;;;;;;;11.30;100.00;101621.34;4874255;29;20067;-91
2022/09/12 03:04:13;;;;;;;37.03;20.42;;;;;;;11.30;100.00;101621.34;4874204;29;20520;-93
2022/09/12 03:07:14;;;;;;;40.08;21.10;;;;;;;11.28;100.00;101623.97;4873080;29;20608;-92
2022/09/12 03:09:53;;;;;;;37.05;20.55;;;;;;;11.29;100.00;101617.03;4870352;29;20515;-93
2022/09/12 03:12:21;;;;;;;40.53;21.50;;;;;;;11.27;100.00;101616.19;4860739;29;20048;-91
2022/09/12 03:15:02;;;;;;;43.67;21.52;;;;;;;11.14;100.00;101593.88;4877924;29;20039;-92
2022/09/12 03:17:55;;;;;;;39.67;20.13;;;;;;;11.25;100.00;101605.00;4876337;29;20025;-92
2022/09/12 03:20:34;;;;;;;39.40;20.67;;;;;;;11.20;100.00;101593.81;4877566;29;20032;-92
2022/09/12 03:23:08;;;;;;;41.85;22.50;;;;;;;11.09;100.00;101587.03;4877021;29;20037;-92
2022/09/12 03:25:39;;;;;;;39.75;21.10;;;;;;;11.22;100.00;101610.22;4875659;29;20049;-92
2022/09/12 03:28:15;;;;;;;39.13;21.10;;;;;;;11.22;100.00;101605.88;4875813;29;20404;-92
2022/09/12 03:30:44;;;;;;;41.03;21.55;;;;;;;11.12;100.00;101590.47;4875162;29;20045;-92
2022/09/12 03:33:17;;;;;;;38.78;20.33;;;;;;;11.13;100.00;101593.03;4876723;29;20033;-92
2022/09/12 03:35:44;;;;;;;41.50;20.98;;;;;;;11.19;100.00;101597.31;4875027;29;20040;-91
2022/09/12 03:38:09;;;;;;;37.30;19.83;;;;;;;11.13;100.00;101584.38;4870423;29;20072;-92
2022/09/12 03:40:40;;;;;;;38.05;20.13;;;;;;;11.19;100.00;101594.72;4876059;29;20403;-91
2022/09/12 03:43:09;;;;;;;37.92;19.88;;;;;;;11.19;100.00;101584.31;4875073;29;20028;-91
2022/09/12 03:45:36;;;;;;;37.90;19.95;;;;;;;11.26;100.00;101597.16;4875824;29;20029;-92
2022/09/12 03:48:02;;;;;;;38.58;20.63;;;;;;;11.23;100.00;101592.03;4875008;29;20039;-93
2022/09/12 03:50:27;;;;;;;37.65;20.33;;;;;;;11.19;100.00;101577.38;4877205;29;20036;-93
2022/09/12 03:53:02;;;;;;;36.95;20.20;;;;;;;11.15;100.00;101572.25;4870283;29;20021;-92
2022/09/12 03:55:31;;;;;;;37.17;20.48;;;;;;;11.21;100.00;101574.75;4878453;29;20068;-92
2022/09/12 03:58:04;;;;;;;41.30;21.08;;;;;;;11.23;100.00;101583.41;4886235;29;20448;-92
2022/09/12 04:00:29;;;;;;;35.28;20.08;;;;;;;11.25;100.00;101579.03;4884504;29;20610;-91
2022/09/12 04:03:03;;;;;;;40.67;20.77;;;;;;;11.34;100.00;101582.34;4865938;29;20036;-92
2022/09/12 04:05:29;;;;;;;39.97;20.50;;;;;;;11.34;100.00;101582.34;4889719;29;20032;-92
2022/09/12 04:07:59;;;;;;;38.15;20.33;;;;;;;11.27;100.00;101582.44;4877345;29;20044;-92
2022/09/12 04:10:24;;;;;;;39.47;21.10;;;;;;;11.23;100.00;101567.81;4860712;29;20476;-92
2022/09/12 04:12:52;;;;;;;39.13;21.00;;;;;;;11.29;100.00;101573.78;4881473;29;20040;-92
2022/09/12 04:15:20;;;;;;;42.17;20.90;;;;;;;11.23;100.00;101573.00;4866571;29;20037;-92
2022/09/12 04:17:48;;;;;;;38.50;20.80;;;;;;;11.23;100.00;101568.69;4889994;29;20032;-91
2022/09/12 04:20:18;;;;;;;44.28;21.58;;;;;;;11.31;100.00;101578.97;4872629;29;20100;-92
2022/09/12 04:22:46;;;;;;;41.03;21.20;;;;;;;11.25;100.00;101576.44;4887459;29;20089;-92
2022/09/12 04:25:12;;;;;;;37.80;20.67;;;;;;;11.25;100.00;101566.06;4874679;29;20045;-93
2022/09/12 04:27:38;;;;;;;42.25;21.83;;;;;;;11.25;100.00;101572.13;4879801;29;20072;-92
2022/09/12 04:30:04;;;;;;;42.55;22.13;;;;;;;11.30;100.00;101569.44;4876317;29;20108;-92
2022/09/12 04:32:30;;;;;;;40.03;21.27;;;;;;;11.26;100.00;101558.25;4875502;29;20400;-91
2022/09/12 04:34:56;;;;;;;41.67;21.30;;;;;;;11.26;100.00;101558.25;4873280;29;20123;-92
2022/09/12 04:37:23;;;;;;;43.38;22.15;;;;;;;11.23;100.00;101547.06;4862012;29;20025;-92
2022/09/12 04:39:49;;;;;;;47.13;22.75;;;;;;;11.28;100.00;101553.88;4887966;29;20384;-92
2022/09/12 04:42:20;;;;;;;45.92;21.90;;;;;;;11.23;100.00;101540.13;4879604;29;20509;-93
2022/09/12 04:44:45;;;;;;;42.85;22.05;;;;;;;11.40;100.00;101564.06;4888326;29;20033;-91
2022/09/12 04:47:11;;;;;;;43.10;21.85;;;;;;;11.30;100.00;101538.31;4876974;29;20168;-92
2022/09/12 04:49:36;;;;;;;43.25;21.63;;;;;;;11.37;100.00;101551.16;4873325;29;20096;-91
2022/09/12 04:52:02;;;;;;;45.95;22.95;;;;;;;11.41;100.00;101559.75;4871190;29;20041;-92
2022/09/12 04:54:30;;;;;;;48.90;23.48;;;;;;;11.33;100.00;101539.09;4882042;29;20056;-92
2022/09/12 04:56:55;;;;;;;53.28;24.52;;;;;;;11.43;100.00;101550.22;4880345;29;20033;-93
2022/09/12 04:59:23;;;;;;;50.90;24.30;;;;;;;11.40;100.00;101532.94;4881424;29;20029;-93
2022/09/12 05:01:49;;;;;;;49.47;24.67;;;;;;;11.48;100.00;101546.66;4872981;29;20115;-91
2022/09/12 05:04:18;;;;;;;52.10;24.58;;;;;;;11.59;100.00;101546.50;4877998;29;20132;-90
2022/09/12 05:06:46;;;;;;;48.35;23.90;;;;;;;11.58;100.00;101543.91;4858924;29;20053;-92
2022/09/12 05:09:20;;;;;;;49.75;24.23;;;;;;;11.55;100.00;101537.03;4872273;29;20463;-90
2022/09/12 05:11:51;;;;;;;54.30;23.55;;;;;;;11.55;100.00;101530.97;4858526;29;20033;-92
2022/09/12 05:14:16;;;;;;;56.15;25.20;;;;;;;11.74;100.00;101555.78;4865229;29;20690;-91
2022/09/12 05:16:45;;;;;;;54.13;25.73;;;;;;;11.74;100.00;101559.22;4878154;29;20104;-91
2022/09/12 05:19:10;;;;;;;50.75;25.15;;;;;;;11.72;100.00;101550.59;4865036;29;20160;-92
2022/09/12 05:21:36;;;;;;;55.15;25.83;;;;;;;11.71;100.00;101548.00;4874934;29;20398;-91
2022/09/12 05:24:04;;;;;;;56.92;25.42;;;;;;;11.77;100.00;101545.34;4874658;29;20029;-92
2022/09/12 05:26:29;;;;;;;50.13;25.17;;;;;;;11.84;100.00;101547.81;4870247;29;20048;-93
2022/09/12 05:29:00;;;;;;;53.42;25.27;;;;;;;11.86;100.00;101547.78;4862475;29;20032;-93
2022/09/12 05:31:42;;;;;;;51.10;25.98;;;;;;;11.93;100.00;101556.34;4878473;29;20041;-93
2022/09/12 05:34:32;;;;;;;56.97;25.92;;;;;;;11.98;100.00;101563.16;4866992;29;20051;-94
2022/09/12 05:37:22;;;;;;;49.20;24.40;;;;;;;12.00;100.00;101560.53;4858386;29;20132;-92
2022/09/12 05:39:47;;;;;;;50.85;24.08;;;;;;;11.94;100.00;101545.88;4865787;29;20052;-93
2022/09/12 05:42:19;;;;;;;53.67;24.48;;;;;;;11.91;100.00;101540.75;4871929;29;20041;-93
2022/09/12 05:44:52;;;;;;;55.53;25.63;;;;;;;11.96;100.00;101538.06;4879027;29;20060;-92
2022/09/12 05:47:18;;;;;;;51.67;24.60;;;;;;;12.03;100.00;101550.94;4879514;29;20111;-91
2022/09/12 05:49:51;;;;;;;54.67;25.80;;;;;;;12.08;100.00;101554.28;4880108;29;20116;-92
2022/09/12 05:52:20;;;;;;;54.53;26.42;;;;;;;12.05;100.00;101548.31;4884439;29;20033;-92
2022/09/12 05:54:48;;;;;;;52.92;25.77;;;;;;;12.01;100.00;101541.47;4860907;29;20082;-93
2022/09/12 05:57:19;;;;;;;50.15;24.60;;;;;;;12.13;100.00;101552.47;4877500;29;20650;-92
2022/09/12 06:00:06;;;;;;;48.00;25.70;;;;;;;12.25;100.00;101572.19;4885119;29;20120;-93
2022/09/12 06:02:40;;;;;;;;;;;;;;;12.31;100.00;101566.84;4852144;29;20096;-92
2022/09/12 06:05:06;;;;;;;54.53;26.05;;;;;;;12.23;100.00;101560.94;4866921;29;20006;-92
2022/09/12 06:07:37;;;;;;;55.50;26.92;;;;;;;12.18;100.00;101552.38;4863014;29;20029;-92
2022/09/12 06:10:04;;;;;;;53.30;25.75;;;;;;;12.34;100.00;101573.75;4863106;29;20469;-92
2022/09/12 06:12:29;;;;;;;53.85;26.65;;;;;;;12.34;100.00;101571.16;4862191;29;20037;-92
2022/09/12 06:15:00;;;;;;;57.50;27.48;;;;;;;12.30;100.00;101566.88;4878064;29;20032;-93
2022/09/12 06:17:40;;;;;;;56.60;27.13;;;;;;;12.30;100.00;101554.75;4859815;29;20089;-92
2022/09/12 06:20:09;;;;;;;54.53;27.80;;;;;;;12.38;100.00;101560.66;4885380;29;20037;-93
2022/09/12 06:22:38;;;;;;;58.75;27.85;;;;;;;12.44;100.00;101562.28;4870891;29;20064;-93
2022/09/12 06:25:04;;;;;;;57.08;27.45;;;;;;;12.45;100.00;101559.66;4868946;29;20048;-93
2022/09/12 06:27:29;;;;;;;54.13;26.77;;;;;;;12.48;100.00;101566.53;4859092;29;20044;-93
2022/09/12 06:30:03;;;;;;;56.25;27.83;;;;;;;12.51;100.00;101571.66;4893007;29;20519;-93
2022/09/12 06:32:38;;;;;;;59.92;27.67;;;;;;;12.46;100.00;101561.38;4882446;29;20025;-94
2022/09/12 06:35:07;;;;;;;55.85;27.23;;;;;;;12.47;100.00;101563.09;4876625;29;20041;-92
2022/09/12 06:37:32;;;;;;;59.85;29.30;;;;;;;12.45;100.00;101554.44;4878875;29;20113;-92
2022/09/12 06:40:01;;;;;;;59.25;28.35;;;;;;;12.42;100.00;101559.69;4892821;29;20040;-94
2022/09/12 06:42:29;;;;;;;54.85;27.23;;;;;;;12.36;100.00;101548.56;4873263;29;20037;-93
2022/09/12 06:44:57;;;;;;;52.58;26.63;;;;;;;12.48;100.00;101556.16;4882176;29;20044;-92
2022/09/12 06:47:25;;;;;;;58.95;27.85;;;;;;;12.39;100.00;101553.72;4881592;29;20048;-93
2022/09/12 06:49:53;;;;;;;55.50;27.42;;;;;;;12.40;100.00;101553.69;4878409;29;20037;-93
2022/09/12 06:52:18;;;;;;;55.97;27.23;;;;;;;12.34;100.00;101553.81;4887311;29;20032;-92
2022/09/12 06:54:45;;;;;;;52.97;26.50;;;;;;;12.47;100.00;101563.09;4865712;29;20092;-92
2022/09/12 06:57:15;;;;;;;62.42;28.02;;;;;;;12.45;100.00;101553.59;4878525;29;20040;-93
2022/09/12 06:59:46;;;;;;;60.55;28.27;;;;;;;12.52;100.00;101565.59;4877380;29;20033;-92
2022/09/12 07:02:15;;;;;;;54.13;27.65;;;;;;;12.47;100.00;101551.81;4874056;29;20519;-92
2022/09/12 07:04:40;;;;;;;56.92;27.33;;;;;;;12.65;100.00;101572.25;4875463;29;20060;-93
2022/09/12 07:07:06;;;;;;;62.33;29.88;;;;;;;12.62;100.00;101559.31;4879369;29;20060;-93
2022/09/12 07:09:31;;;;;;;64.25;30.33;;;;;;;12.75;100.00;101567.72;4887924;29;20033;-93
2022/09/12 07:12:03;;;;;;;62.38;29.75;;;;;;;12.74;100.00;101550.41;4876711;29;20043;-92
2022/09/12 07:14:28;;;;;;;61.67;30.63;;;;;;;12.91;100.00;101569.09;4878390;29;20029;-92
2022/09/12 07:16:54;;;;;;;58.95;30.75;;;;;;;12.89;100.00;101556.13;4892694;29;20029;-92
2022/09/12 07:19:23;;;;;;;66.97;31.90;;;;;;;12.95;100.00;101547.34;4888606;29;20525;-92
2022/09/12 07:21:49;;;;;;;60.67;29.95;;;;;;;13.00;100.00;101541.13;4869098;29;20033;-92
2022/09/12 07:24:14;;;;;;;65.50;31.13;;;;;;;13.12;100.00;101552.16;4876159;29;20029;-93
2022/09/12 07:26:40;;;;;;;60.70;31.17;;;;;;;13.18;100.00;101558.09;4874992;29;20383;-93
2022/09/12 07:29:11;;;;;;;64.50;31.83;;;;;;;13.17;100.00;101537.34;4882221;29;20025;-93
2022/09/12 07:31:37;;;;;;;60.15;31.05;;;;;;;13.23;100.00;101540.66;4866007;29;20040;-94
2022/09/12 07:34:05;;;;;;;63.42;31.75;;;;;;;13.37;100.00;101553.34;4871227;29;20084;-91
2022/09/12 07:36:30;;;;;;;69.43;32.53;;;;;;;13.34;100.00;101538.63;4877721;29;20040;-92
2022/09/12 07:38:57;;;;;;;67.78;33.63;;;;;;;13.42;100.00;101548.88;4859750;29;20025;-93
2022/09/12 07:41:27;;;;;;;62.45;31.75;;;;;;;13.42;100.00;101531.50;4880888;29;20040;-93
2022/09/12 07:43:55;;;;;;;61.08;31.10;;;;;;;13.57;100.00;101537.22;4861792;29;20029;-92
2022/09/12 07:46:25;;;;;;;61.17;31.45;;;;;;;13.68;100.00;101554.28;4861605;29;20035;-92
2022/09/12 07:48:58;;;;;;;57.13;29.50;;;;;;;13.71;100.00;101546.41;4884173;29;20080;-93
2022/09/12 07:51:28;;;;;;;59.70;30.63;;;;;;;13.80;100.00;101546.16;4889782;29;20145;-94
2022/09/12 07:53:57;;;;;;;52.80;28.65;;;;;;;13.82;100.00;101533.94;4877411;29;20387;-92
2022/09/12 07:56:26;;;;;;;59.25;30.52;;;;;;;14.02;100.00;101551.66;4865150;29;20119;-93
2022/09/12 07:58:53;;;;;;;58.08;29.75;;;;;;;14.09;100.00;101549.75;4874435;29;20566;-92
2022/09/12 08:01:22;;;;;;;51.47;28.40;;;;;;;14.09;100.00;101540.19;4865833;29;20039;-93
2022/09/12 08:03:51;;;;;;;53.35;29.10;;;;;;;14.22;100.00;101548.53;4871529;29;20043;-92
2022/09/12 08:06:29;;;;;;;53.45;29.30;;;;;;;14.34;100.00;101547.31;4860868;29;20018;-93
2022/09/12 08:09:02;;;;;;;60.13;31.48;;;;;;;14.39;100.00;101535.91;4886042;29;20039;-94
2022/09/12 08:11:31;;;;;;;57.88;30.60;;;;;;;14.48;100.00;101537.38;4879393;29;20028;-93
2022/09/12 08:14:04;;;;;;;57.42;31.02;;;;;;;14.68;100.00;101545.50;4876400;29;20066;-92
2022/09/12 08:16:33;;;;;;;59.35;31.38;;;;;;;14.89;100.00;101552.69;4874376;29;20035;-94
2022/09/12 08:19:03;;;;;;;62.75;32.88;;;;;;;15.18;100.00;101550.94;4876881;29;20511;-93
2022/09/12 08:21:44;;;;;;;62.85;32.53;;;;;;;15.49;100.00;101535.16;4880048;29;20405;-95
2022/09/12 08:24:11;;;;;;;57.22;31.00;;;;;;;15.85;100.00;101533.94;4882413;29;20462;-93
2022/09/12 08:26:39;;;;;;;57.05;31.92;;;;;;;16.27;100.00;101554.25;4861394;29;20028;-93
2022/09/12 08:29:17;;;;;;;51.80;30.48;;;;;;;16.51;100.00;101562.06;4876560;29;20068;-94
2022/09/12 08:31:42;;;;;;;47.08;28.58;;;;;;;16.81;100.00;101561.88;4867740;29;20411;-93
2022/09/12 08:34:08;;;;;;;46.92;27.95;;;;;;;16.93;100.00;101543.06;4876257;29;20502;-93
2022/09/12 08:36:34;;;;;;;42.83;26.48;;;;;;;17.17;100.00;101562.22;4876617;29;20156;-94
2022/09/12 08:39:03;;;;;;;41.40;25.00;;;;;;;17.24;100.00;101553.19;4877453;29;20068;-93
2022/09/12 08:41:41;;;;;;;39.60;24.17;;;;;;;17.34;100.00;101554.50;4884366;29;20030;-94
2022/09/12 08:44:33;;;;;;;38.13;24.00;;;;;;;17.50;100.00;101565.25;4871011;29;20468;-93
2022/09/12 08:47:26;;;;;;;37.13;24.00;;;;;;;17.79;100.00;101574.56;4878318;29;20415;-93
2022/09/12 08:50:01;;;;;;;38.88;24.45;;;;;;;17.91;100.00;101571.41;4862035;29;20034;-93
2022/09/12 08:52:28;;;;;;;36.42;23.33;;;;;;;17.89;96.75;101550.50;4859171;29;20037;-92
2022/09/12 08:54:57;;;;;;;39.40;24.33;;;;;;;18.09;98.88;101565.38;4876133;29;20041;-93
2022/09/12 08:57:25;;;;;;;36.78;23.60;;;;;;;18.12;100.00;101544.25;4860566;29;20033;-93
2022/09/12 08:59:55;;;;;;;36.78;24.15;;;;;;;18.12;99.46;101545.13;4874028;29;20033;-93
2022/09/12 09:02:50;;;;;;;36.85;23.60;;;;;;;18.30;97.32;101564.44;4877321;29;20373;-93
2022/09/12 09:05:58;;;;;;;33.28;21.65;;;;;;;18.48;97.38;101566.28;4863848;29;20029;-93
2022/09/12 09:08:51;;;;;;;39.55;23.08;;;;;;;18.55;98.02;101548.47;4860978;29;20048;-93
2022/09/12 09:11:38;;;;;;;37.00;23.33;;;;;;;18.75;96.56;101564.19;4878677;29;20111;-95
2022/09/12 09:17:11;;;;;;;35.20;21.75;;;;;;;19.03;95.09;101562.91;4879418;29;20048;-93
2022/09/12 09:19:44;;;;;;;32.53;22.27;;;;;;;18.97;91.13;101547.44;4875344;29;20020;-92
2022/09/12 09:22:27;;;;;;;32.10;21.40;;;;;;;19.07;92.90;101535.53;4880907;29;20108;-93
2022/09/12 09:25:01;;;;;;;31.38;20.70;;;;;;;19.15;92.13;101536.88;4881652;29;20073;-92
2022/09/12 09:27:39;;;;;;;28.93;19.67;;;;;;;19.29;94.22;101533.59;4880218;29;20035;-93
2022/09/12 09:30:14;;;;;;;31.30;19.65;;;;;;;19.43;91.58;101536.38;4883419;29;20036;-93
2022/09/12 09:32:47;;;;;;;28.75;19.02;;;;;;;19.45;89.34;101529.25;4889295;29;20088;-92
2022/09/12 09:35:26;;;;;;;30.38;18.98;;;;;;;19.57;88.34;101520.81;4885600;29;20024;-92
2022/09/12 09:38:09;;;;;;;27.50;18.55;;;;;;;19.77;89.36;101546.09;4861838;29;20510;-93
2022/09/12 09:40:45;;;;;;;28.92;18.15;;;;;;;19.93;91.45;101546.16;4868938;29;20115;-91
2022/09/12 09:43:22;;;;;;;25.63;17.90;;;;;;;20.01;89.33;101529.03;4879845;29;20029;-93
2022/09/12 09:46:02;;;;;;;;;;;;;;;;;;;;;
2022/09/12 09:48:31;;;;;;;24.30;16.85;;;;;;;20.44;87.37;101545.25;4892275;29;20035;-93
2022/09/12 09:51:02;;;;;;;23.52;16.92;;;;;;;20.46;82.15;101532.88;4878361;29;20037;-93
2022/09/12 09:53:42;;;;;;;26.83;16.55;;;;;;;20.58;83.42;101526.06;4879016;29;20196;-93
2022/09/12 09:56:26;;;;;;;25.20;15.70;;;;;;;20.59;85.06;101519.88;4866836;29;20119;-94
2022/09/12 09:58:55;;;;;;;23.58;16.80;;;;;;;20.66;80.86;101511.56;4890254;29;20034;-93
2022/09/12 10:01:23;;;;;;;24.50;17.40;;;;;;;20.77;83.86;101534.66;4871204;29;20021;-93
2022/09/12 10:03:51;;;;;;;22.77;15.32;;;;;;;20.71;80.56;101511.28;4883267;29;20389;-93
2022/09/12 10:06:20;;;;;;;24.45;15.05;;;;;;;20.94;79.39;101516.16;4876458;29;20059;-94
2022/09/12 10:08:47;;;;;;;20.73;13.90;;;;;;;20.88;80.51;101495.38;4895926;29;20056;-92
2022/09/12 10:11:23;;;;;;;18.85;13.27;;;;;;;21.07;83.26;101503.97;4871140;29;20123;-93
2022/09/12 10:13:55;;;;;;;17.52;12.65;;;;;;;21.09;79.59;101501.22;4883547;29;20045;-93
2022/09/12 10:16:21;;;;;;;19.40;12.75;;;;;;;21.09;77.10;101509.97;4893218;29;20067;-93
2022/09/12 10:18:51;;;;;;;18.42;13.07;;;;;;;20.94;78.90;101483.66;4877408;29;20422;-92
2022/09/12 10:21:55;;;;;;;19.42;12.75;;;;;;;21.07;81.40;101487.31;4880815;29;20040;-93
2022/09/12 10:24:29;;;;;;;16.33;11.97;;;;;;;21.02;77.59;101487.53;4864106;29;20061;-92
2022/09/12 10:26:56;;;;;;;;;;;;;;;21.22;84.57;101492.56;4877558;29;20297;-93
2022/09/12 10:29:27;;;;;;;15.13;10.07;;;;;;;21.03;77.13;101477.84;4879395;29;19915;-92
2022/09/12 10:31:59;;;;;;;15.27;10.00;;;;;;;21.00;77.63;101475.41;4890308;29;20383;-93
2022/09/12 10:34:38;;;;;;;14.27;10.20;;;;;;;21.02;78.00;101471.72;4878655;29;20032;-93
2022/09/12 10:37:17;;;;;;;15.02;10.23;;;;;;;21.10;76.75;101458.09;4879391;29;20116;-94
2022/09/12 10:39:55;;;;;;;14.98;10.15;;;;;;;21.05;75.58;101457.53;4889461;29;20119;-93
2022/09/12 10:42:54;;;;;;;13.13;8.77;;;;;;;21.14;78.14;101478.94;4877801;29;20372;-94
2022/09/12 10:46:01;;;;;;;13.00;8.40;;;;;;;21.15;79.13;101469.25;4862373;29;20021;-94
2022/09/12 10:48:35;;;;;;;10.93;8.70;;;;;;;21.16;75.22;101453.34;4857289;29;20560;-94
2022/09/12 10:51:00;;;;;;;12.50;9.13;;;;;;;21.13;74.21;101450.03;4877671;29;20032;-93
2022/09/12 10:53:45;;;;;;;12.57;8.65;;;;;;;21.16;76.34;101444.59;4877779;29;20047;-92
2022/09/12 10:56:15;;;;;;;12.15;8.40;;;;;;;21.21;71.45;101438.13;4877585;29;20364;-92
2022/09/12 10:59:04;;;;;;;11.68;8.48;;;;;;;21.28;76.98;101451.81;4876948;29;20029;-91
2022/09/12 11:01:44;;;;;;;11.43;7.95;;;;;;;21.27;74.89;101443.06;4881209;29;20040;-93
2022/09/12 11:04:39;;;;;;;9.15;6.75;;;;;;;21.45;74.28;101453.44;4884963;29;20081;-93
2022/09/12 11:07:29;;;;;;;10.15;7.00;;;;;;;21.54;73.85;101447.63;4864987;29;20064;-94
2022/09/12 11:10:25;;;;;;;10.77;7.85;;;;;;;21.44;74.26;101423.56;4866467;29;20048;-93
2022/09/12 11:13:33;;;;;;;10.10;7.50;;;;;;;21.48;75.42;101435.66;4867013;29;20076;-92
2022/09/12 11:16:11;;;;;;;10.63;6.82;;;;;;;21.41;74.19;101436.09;4878839;29;20013;-92
2022/09/12 11:18:43;;;;;;;9.75;6.90;;;;;;;21.47;73.72;101431.31;4878561;29;20132;-92
2022/09/12 11:21:17;;;;;;;10.60;7.53;;;;;;;21.54;72.54;101434.44;4891407;29;20025;-92
2022/09/12 11:24:20;;;;;;;8.60;6.95;;;;;;;21.60;74.83;101424.38;4871226;29;20082;-92
2022/09/12 11:26:50;;;;;;;8.13;5.60;;;;;;;21.74;72.51;101426.16;4876351;29;20087;-94
2022/09/12 11:29:37;;;;;;;8.23;5.80;;;;;;;21.79;72.23;101431.16;4890592;29;20113;-92
2022/09/12 11:32:49;;;;;;;8.20;5.80;;;;;;;21.88;71.09;101426.16;4877174;29;20033;-92
2022/09/12 11:35:27;;;;;;;9.50;5.70;;;;;;;21.88;71.15;101418.25;4856379;29;20420;-92
2022/09/12 11:38:30;;;;;;;7.20;5.45;;;;;;;22.04;73.20;101429.56;4864200;29;20045;-94